Time;durP1;ratioP1;P1;durP2;ratioP2;P2;SDS_P1;SDS_P2;PMS_P1;PMS_P2;Temp;Humidity;BMP_temperature;BMP_pressure;BME280_temperature;BME280_humidity;BME280_pressure;Samples;Min_cycle;Max_cycle;Signal;HPM_P1;HPM_P2
2022/03/18 00:02:11;;;;;;;31.30;24.25;;;11.20;1.00;;;;;;5053209;28;20029;-92
2022/03/18 00:04:37;;;;;;;35.03;24.92;;;11.20;1.00;;;;;;5054842;28;20017;-92
2022/03/18 00:07:03;;;;;;;38.22;26.33;;;11.40;1.00;;;;;;5046652;28;20090;-92
2022/03/18 00:09:30;;;;;;;42.65;25.98;;;11.00;1.00;;;;;;5050093;28;20031;-92
2022/03/18 00:11:55;;;;;;;35.17;24.95;;;11.00;1.00;;;;;;5049982;28;20041;-92
2022/03/18 00:14:21;;;;;;;38.72;24.67;;;11.00;1.00;;;;;;5051345;28;20025;-92
2022/03/18 00:16:47;;;;;;;33.60;23.98;;;11.10;1.00;;;;;;5053614;28;20013;-92
2022/03/18 00:19:12;;;;;;;35.83;24.90;;;11.20;1.00;;;;;;5051636;28;20037;-92
2022/03/18 00:21:38;;;;;;;33.25;24.33;;;11.30;1.00;;;;;;5051528;28;20029;-92
2022/03/18 00:24:04;;;;;;;36.65;24.40;;;11.20;1.00;;;;;;5052505;28;20804;-91
2022/03/18 00:26:30;;;;;;;36.45;23.55;;;11.20;1.00;;;;;;5051459;28;20025;-92
2022/03/18 00:28:56;;;;;;;40.28;24.90;;;11.10;1.00;;;;;;5052289;28;20090;-92
2022/03/18 00:31:22;;;;;;;38.70;25.00;;;11.00;1.00;;;;;;5050202;28;20095;-92
2022/03/18 00:33:48;;;;;;;36.20;24.42;;;11.00;1.00;;;;;;5050055;28;20033;-92
2022/03/18 00:36:13;;;;;;;35.53;22.45;;;11.10;1.00;;;;;;5065707;28;20099;-92
2022/03/18 00:38:39;;;;;;;35.33;24.65;;;11.10;1.00;;;;;;5050151;28;20390;-92
2022/03/18 00:41:06;;;;;;;34.78;24.05;;;11.10;1.00;;;;;;5053184;28;20481;-92
2022/03/18 00:43:31;;;;;;;37.08;23.90;;;11.00;1.00;;;;;;5049964;28;20068;-91
2022/03/18 00:45:57;;;;;;;35.60;24.83;;;11.00;1.00;;;;;;5049742;28;20032;-92
2022/03/18 00:53:52;;;;;;;39.92;24.85;;;10.90;1.00;;;;;;5037517;28;20036;-92
2022/03/18 00:56:18;;;;;;;36.05;24.80;;;10.90;1.00;;;;;;5051166;28;20496;-92
2022/03/18 00:58:44;;;;;;;36.95;25.65;;;10.90;1.00;;;;;;5050742;28;20099;-91
2022/03/18 01:01:10;;;;;;;36.50;25.80;;;10.90;1.00;;;;;;5049866;28;20037;-92
2022/03/18 01:03:35;;;;;;;36.65;25.85;;;11.00;1.00;;;;;;5050670;28;20081;-92
2022/03/18 01:06:01;;;;;;;37.42;24.98;;;10.90;1.00;;;;;;5049982;28;20028;-91
2022/03/18 01:08:27;;;;;;;40.58;25.70;;;11.00;1.00;;;;;;5051089;28;20032;-92
2022/03/18 01:10:53;;;;;;;36.75;24.92;;;11.00;1.00;;;;;;5052786;28;20408;-92
2022/03/18 01:13:20;;;;;;;35.55;25.63;;;10.90;1.00;;;;;;5050993;28;20419;-92
2022/03/18 01:15:46;;;;;;;40.35;26.02;;;10.90;1.00;;;;;;5048395;28;20104;-91
2022/03/18 01:18:11;;;;;;;37.13;24.35;;;11.00;1.00;;;;;;5049670;28;20116;-92
2022/03/18 01:20:37;;;;;;;37.72;25.17;;;11.00;1.00;;;;;;5066300;28;20032;-91
2022/03/18 01:23:06;;;;;;;38.33;25.10;;;11.00;1.00;;;;;;5051708;28;20025;-91
2022/03/18 01:25:35;;;;;;;41.20;26.63;;;10.90;1.00;;;;;;5049732;28;20075;-93
2022/03/18 01:28:06;;;;;;;38.95;26.23;;;10.80;1.00;;;;;;5051028;28;20511;-92
2022/03/18 01:30:32;;;;;;;36.67;25.67;;;10.90;1.00;;;;;;5043932;28;20043;-91
2022/03/18 01:33:02;;;;;;;43.03;26.50;;;10.80;1.00;;;;;;5050496;28;20131;-91
2022/03/18 01:35:31;;;;;;;39.10;27.25;;;10.90;1.00;;;;;;5050660;28;20051;-92
2022/03/18 01:37:57;;;;;;;39.72;27.85;;;10.70;1.00;;;;;;5052043;28;20029;-91
2022/03/18 01:40:23;;;;;;;40.58;27.13;;;10.70;1.00;;;;;;5049106;28;20033;-92
2022/03/18 01:42:48;;;;;;;44.08;26.52;;;10.70;1.00;;;;;;5050095;28;20051;-92
2022/03/18 01:45:14;;;;;;;40.58;26.65;;;10.80;1.00;;;;;;5047766;28;20025;-92
2022/03/18 01:47:43;;;;;;;39.92;26.05;;;10.90;1.00;;;;;;5050857;28;20052;-92
2022/03/18 01:50:10;;;;;;;40.95;26.63;;;11.00;1.00;;;;;;5052685;28;20857;-91
2022/03/18 01:52:37;;;;;;;38.97;26.98;;;10.80;1.00;;;;;;5049505;28;20036;-91
2022/03/18 01:55:04;;;;;;;37.97;26.92;;;10.80;1.00;;;;;;5053823;28;20040;-91
2022/03/18 01:57:30;;;;;;;41.08;27.10;;;10.70;1.00;;;;;;5053716;28;20036;-92
2022/03/18 01:59:56;;;;;;;40.03;26.98;;;10.70;1.00;;;;;;5051551;28;20117;-91
2022/03/18 02:02:22;;;;;;;41.55;27.50;;;10.70;1.00;;;;;;5054959;28;20037;-92
2022/03/18 02:04:48;;;;;;;39.92;27.67;;;10.70;1.00;;;;;;5056597;28;20598;-91
2022/03/18 02:07:14;;;;;;;40.22;28.33;;;11.00;1.00;;;;;;5054351;28;20036;-91
2022/03/18 02:09:41;;;;;;;39.35;27.13;;;10.70;1.00;;;;;;5052660;28;20025;-91
2022/03/18 02:12:09;;;;;;;40.95;27.42;;;10.80;1.00;;;;;;5054590;28;20044;-92
2022/03/18 02:14:35;;;;;;;40.60;27.13;;;10.70;1.00;;;;;;5054462;28;20029;-92
2022/03/18 02:17:05;;;;;;;40.50;27.35;;;10.60;1.00;;;;;;5054960;28;20027;-92
2022/03/18 02:19:31;;;;;;;40.78;27.83;;;10.70;1.00;;;;;;5053261;28;20025;-92
2022/03/18 02:21:57;;;;;;;40.53;26.35;;;10.70;1.00;;;;;;5053611;28;20040;-91
2022/03/18 02:24:24;;;;;;;42.95;28.48;;;10.70;1.00;;;;;;5054074;28;20033;-91
2022/03/18 02:26:51;;;;;;;46.33;26.65;;;10.60;1.00;;;;;;5052661;28;20536;-91
2022/03/18 02:29:19;;;;;;;38.03;27.77;;;10.70;1.00;;;;;;5054684;28;20032;-91
2022/03/18 02:31:44;;;;;;;37.35;26.80;;;10.70;1.00;;;;;;5054941;28;20455;-91
2022/03/18 02:34:10;;;;;;;37.03;26.85;;;10.80;1.00;;;;;;5051568;28;20100;-91
2022/03/18 02:36:36;;;;;;;41.22;27.40;;;10.90;1.00;;;;;;5053643;28;20485;-91
2022/03/18 02:39:02;;;;;;;40.40;27.15;;;10.80;1.00;;;;;;5053575;28;20484;-91
2022/03/18 02:41:28;;;;;;;44.58;27.83;;;10.60;1.00;;;;;;5052179;28;20500;-91
2022/03/18 02:43:53;;;;;;;39.60;27.90;;;10.70;1.00;;;;;;5055980;28;20025;-92
2022/03/18 02:46:21;;;;;;;43.78;27.70;;;11.10;1.00;;;;;;5052406;28;20035;-92
2022/03/18 02:48:47;;;;;;;44.05;27.48;;;10.80;1.00;;;;;;5053780;28;20033;-91
2022/03/18 02:51:13;;;;;;;41.00;28.02;;;10.80;1.00;;;;;;5053058;28;20031;-92
2022/03/18 02:53:39;;;;;;;41.92;27.85;;;10.70;1.00;;;;;;5053074;28;20033;-91
2022/03/18 02:56:07;;;;;;;39.05;27.05;;;10.80;1.00;;;;;;5054147;28;20078;-91
2022/03/18 02:58:34;;;;;;;40.00;27.35;;;10.80;1.00;;;;;;5053360;28;20443;-91
2022/03/18 03:00:59;;;;;;;39.92;27.40;;;10.70;1.00;;;;;;5052273;28;20036;-92
2022/03/18 03:03:25;;;;;;;40.75;28.23;;;10.80;1.00;;;;;;5052776;28;20028;-91
2022/03/18 03:08:35;;;;;;;42.53;27.83;;;10.70;1.00;;;;;;5053108;28;20048;-91
2022/03/18 03:11:00;;;;;;;40.85;27.48;;;10.60;1.00;;;;;;5054708;28;20017;-91
2022/03/18 03:13:26;;;;;;;36.90;27.27;;;10.50;1.00;;;;;;5051712;28;20039;-92
2022/03/18 03:15:52;;;;;;;37.50;26.40;;;10.70;1.00;;;;;;5051985;28;20025;-91
2022/03/18 03:18:17;;;;;;;39.10;27.98;;;10.60;1.00;;;;;;5051586;28;20543;-91
2022/03/18 03:20:43;;;;;;;38.95;27.35;;;10.60;1.00;;;;;;5051324;28;20580;-92
2022/03/18 03:23:09;;;;;;;43.38;27.45;;;10.60;1.00;;;;;;5054842;28;20021;-91
2022/03/18 03:25:35;;;;;;;40.25;26.55;;;10.60;1.00;;;;;;5053252;28;20033;-92
2022/03/18 03:28:00;;;;;;;35.92;25.75;;;10.60;1.00;;;;;;5052738;28;20033;-91
2022/03/18 03:30:26;;;;;;;38.55;26.52;;;10.70;1.00;;;;;;5051153;28;20028;-92
2022/03/18 03:32:52;;;;;;;36.03;26.05;;;10.60;1.00;;;;;;5053063;28;20436;-91
2022/03/18 03:35:18;;;;;;;38.97;25.65;;;10.60;1.00;;;;;;5053734;28;20047;-92
2022/03/18 03:37:44;;;;;;;37.80;26.27;;;10.70;1.00;;;;;;5054679;28;20021;-91
2022/03/18 03:40:13;;;;;;;42.17;25.38;;;10.60;1.00;;;;;;5051084;28;20029;-91
2022/03/18 03:42:41;;;;;;;34.92;25.65;;;10.70;1.00;;;;;;5052330;28;20032;-92
2022/03/18 03:45:09;;;;;;;34.47;25.20;;;10.70;1.00;;;;;;5054183;28;20025;-92
2022/03/18 03:47:35;;;;;;;38.20;26.45;;;10.80;1.00;;;;;;5051803;28;20026;-91
2022/03/18 03:50:01;;;;;;;36.42;26.45;;;10.80;1.00;;;;;;5052023;28;20400;-92
2022/03/18 03:52:26;;;;;;;36.00;25.33;;;10.70;1.00;;;;;;5065797;28;20043;-91
2022/03/18 03:54:52;;;;;;;42.63;26.25;;;10.80;1.00;;;;;;5052411;28;20037;-91
2022/03/18 03:57:18;;;;;;;37.85;25.63;;;10.70;1.00;;;;;;5050641;28;20067;-92
2022/03/18 03:59:43;;;;;;;36.30;24.70;;;10.70;1.00;;;;;;5064908;28;20437;-91
2022/03/18 04:02:11;;;;;;;33.70;24.50;;;10.70;1.00;;;;;;5050895;28;20112;-92
2022/03/18 04:04:37;;;;;;;36.60;26.35;;;10.70;1.00;;;;;;5053569;28;20512;-91
2022/03/18 04:07:03;;;;;;;37.95;25.98;;;10.50;1.00;;;;;;5051409;28;20033;-91
2022/03/18 04:09:28;;;;;;;38.00;26.17;;;10.60;1.00;;;;;;5051357;28;20021;-91
2022/03/18 04:11:54;;;;;;;37.25;26.00;;;10.60;1.00;;;;;;5051705;28;20029;-92
2022/03/18 04:14:20;;;;;;;37.58;25.13;;;10.60;1.00;;;;;;5053112;28;20025;-91
2022/03/18 04:16:46;;;;;;;37.15;25.30;;;10.50;1.00;;;;;;5053285;28;20032;-91
2022/03/18 04:19:11;;;;;;;34.17;24.52;;;10.50;1.00;;;;;;5048590;28;20123;-92
2022/03/18 04:21:37;;;;;;;39.15;26.23;;;10.60;1.00;;;;;;5051574;28;20047;-92
2022/03/18 04:24:03;;;;;;;34.28;25.08;;;10.50;1.00;;;;;;5051062;28;20017;-91
2022/03/18 04:26:29;;;;;;;37.80;25.35;;;10.40;1.00;;;;;;5051523;28;20041;-92
2022/03/18 04:28:54;;;;;;;34.60;24.75;;;10.40;1.00;;;;;;5051513;28;20033;-91
2022/03/18 04:31:20;;;;;;;35.10;24.10;;;10.40;1.00;;;;;;5049868;28;20178;-92
2022/03/18 04:33:46;;;;;;;35.30;25.20;;;10.40;1.00;;;;;;5043898;28;20053;-92
2022/03/18 04:36:12;;;;;;;33.88;25.25;;;10.50;1.00;;;;;;5050552;28;20120;-92
2022/03/18 04:38:38;;;;;;;37.03;24.45;;;10.40;1.00;;;;;;5049922;28;20493;-92
2022/03/18 04:41:04;;;;;;;35.65;24.15;;;10.40;1.00;;;;;;5053397;28;20367;-91
2022/03/18 04:43:30;;;;;;;35.88;24.80;;;10.40;1.00;;;;;;5051844;28;20583;-91
2022/03/18 04:45:55;;;;;;;35.72;25.33;;;10.50;1.00;;;;;;5051177;28;20033;-91
2022/03/18 04:48:21;;;;;;;38.85;26.23;;;10.70;1.00;;;;;;5061517;28;20030;-92
2022/03/18 04:50:47;;;;;;;38.17;25.40;;;10.50;1.00;;;;;;5050713;28;20029;-91
2022/03/18 04:53:12;;;;;;;36.35;24.85;;;10.50;1.00;;;;;;5052541;28;20086;-92
2022/03/18 04:55:38;;;;;;;34.00;24.10;;;10.50;1.00;;;;;;5050554;28;20081;-91
2022/03/18 04:58:04;;;;;;;39.60;25.63;;;10.50;1.00;;;;;;5037202;28;20477;-92
2022/03/18 05:00:29;;;;;;;34.20;25.33;;;10.40;1.00;;;;;;5040813;28;20025;-91
2022/03/18 05:02:58;;;;;;;40.15;25.73;;;10.50;1.00;;;;;;5051121;28;20021;-91
2022/03/18 05:05:24;;;;;;;38.03;26.27;;;10.40;1.00;;;;;;5051576;28;20562;-91
2022/03/18 05:07:51;;;;;;;40.17;25.60;;;10.40;1.00;;;;;;5050698;28;20052;-92
2022/03/18 05:10:17;;;;;;;38.20;26.90;;;10.50;1.00;;;;;;5050315;28;20037;-91
2022/03/18 05:12:43;;;;;;;35.42;25.33;;;10.50;1.00;;;;;;5050955;28;20435;-92
2022/03/18 05:15:09;;;;;;;35.97;25.60;;;10.50;1.00;;;;;;5062461;28;20083;-92
2022/03/18 05:17:38;;;;;;;36.53;25.55;;;10.50;1.00;;;;;;5050469;28;20143;-92
2022/03/18 05:20:05;;;;;;;39.97;26.42;;;10.40;1.00;;;;;;5051649;28;20037;-92
2022/03/18 05:22:31;;;;;;;40.88;26.55;;;10.30;1.00;;;;;;5049460;28;20025;-91
2022/03/18 05:24:57;;;;;;;40.00;26.45;;;10.40;1.00;;;;;;5048412;28;20028;-92
2022/03/18 05:27:24;;;;;;;40.70;26.10;;;10.30;1.00;;;;;;5050355;28;20032;-91
2022/03/18 05:29:50;;;;;;;38.85;26.02;;;10.60;1.00;;;;;;5048511;28;20494;-92
2022/03/18 05:32:16;;;;;;;39.40;25.80;;;10.40;1.00;;;;;;5051443;28;20056;-92
2022/03/18 05:34:42;;;;;;;39.60;26.17;;;10.30;1.00;;;;;;5051876;28;20485;-91
2022/03/18 05:37:07;;;;;;;40.55;26.85;;;10.40;1.00;;;;;;5048617;28;20120;-91
2022/03/18 05:39:34;;;;;;;40.15;26.95;;;10.40;1.00;;;;;;5050677;28;20512;-91
2022/03/18 05:42:00;;;;;;;38.58;25.80;;;10.40;1.00;;;;;;5050865;28;20045;-92
2022/03/18 05:44:25;;;;;;;39.03;26.80;;;10.50;1.00;;;;;;5051029;28;20389;-91
2022/03/18 05:46:51;;;;;;;39.55;27.20;;;10.40;1.00;;;;;;5049184;28;20029;-91
2022/03/18 05:49:18;;;;;;;40.53;27.73;;;10.30;1.00;;;;;;5050559;28;20397;-91
2022/03/18 05:51:45;;;;;;;38.58;27.15;;;10.50;1.00;;;;;;5050811;28;20040;-91
2022/03/18 05:54:11;;;;;;;38.33;27.13;;;10.30;1.00;;;;;;5050591;28;20106;-91
2022/03/18 05:56:52;;;;;;;38.58;25.88;;;10.20;1.00;;;;;;5050384;28;20053;-91
2022/03/18 05:59:24;;;;;;;41.42;26.65;;;10.30;1.00;;;;;;5046179;28;20052;-92
2022/03/18 06:01:51;;;;;;;39.38;27.02;;;10.40;1.00;;;;;;5046117;28;20029;-91
2022/03/18 06:04:17;;;;;;;39.65;26.25;;;10.40;1.00;;;;;;5050104;28;20021;-92
2022/03/18 06:06:44;;;;;;;40.17;27.42;;;10.40;1.00;;;;;;5050469;28;20442;-92
2022/03/18 06:11:56;;;;;;;40.80;27.23;;;10.30;1.00;;;;;;5036299;28;20159;-92
2022/03/18 06:14:24;;;;;;;41.20;26.45;;;10.40;1.00;;;;;;5050386;28;20071;-91
2022/03/18 06:16:58;;;;;;;40.90;27.05;;;10.40;1.00;;;;;;5049434;28;20025;-90
2022/03/18 06:19:25;;;;;;;40.08;26.80;;;10.30;1.00;;;;;;5049760;28;20025;-88
2022/03/18 06:21:51;;;;;;;40.55;27.30;;;10.50;1.00;;;;;;5050201;28;20079;-88
2022/03/18 06:24:19;;;;;;;38.50;26.35;;;10.30;1.00;;;;;;5048737;28;20439;-87
2022/03/18 06:26:44;;;;;;;39.00;27.30;;;10.40;1.00;;;;;;5048348;28;20029;-87
2022/03/18 06:29:10;;;;;;;43.45;27.27;;;10.40;1.00;;;;;;5047382;28;20036;-88
2022/03/18 06:31:36;;;;;;;41.17;26.33;;;10.40;1.00;;;;;;5048832;28;20472;-88
2022/03/18 06:34:03;;;;;;;36.78;26.00;;;10.30;1.00;;;;;;5049505;28;20485;-89
2022/03/18 06:36:29;;;;;;;37.42;25.38;;;10.30;1.00;;;;;;5050182;28;20036;-89
2022/03/18 06:38:55;;;;;;;39.80;27.55;;;10.30;1.00;;;;;;5050441;28;20021;-89
2022/03/18 06:41:21;;;;;;;39.08;26.55;;;10.30;1.00;;;;;;5054602;28;20044;-89
2022/03/18 06:43:47;;;;;;;38.13;25.98;;;10.70;1.00;;;;;;5053198;28;20193;-89
2022/03/18 06:46:14;;;;;;;40.03;25.80;;;10.20;1.00;;;;;;5051462;28;20037;-90
2022/03/18 06:48:41;;;;;;;37.97;26.85;;;10.20;1.00;;;;;;5053222;28;20021;-90
2022/03/18 06:51:06;;;;;;;40.67;26.35;;;10.10;1.00;;;;;;5053498;28;20481;-91
2022/03/18 06:53:32;;;;;;;41.65;26.85;;;10.40;1.00;;;;;;5053307;28;20056;-90
2022/03/18 06:55:58;;;;;;;36.92;25.88;;;10.20;1.00;;;;;;5053542;28;20036;-90
2022/03/18 06:58:23;;;;;;;35.88;24.88;;;10.10;1.00;;;;;;5052427;28;20032;-90
2022/03/18 07:00:49;;;;;;;41.08;26.13;;;10.10;1.00;;;;;;5053086;28;20517;-91
2022/03/18 07:03:15;;;;;;;34.75;24.20;;;10.00;1.00;;;;;;5051594;28;20027;-91
2022/03/18 07:05:41;;;;;;;38.67;25.70;;;10.00;1.00;;;;;;5053234;28;20079;-90
2022/03/18 07:08:06;;;;;;;36.05;25.65;;;10.10;1.00;;;;;;5055327;28;20017;-90
2022/03/18 07:10:32;;;;;;;38.80;25.92;;;10.30;1.00;;;;;;5063561;28;20033;-90
2022/03/18 07:12:58;;;;;;;37.00;23.98;;;10.10;1.00;;;;;;5053205;28;20099;-90
2022/03/18 07:15:23;;;;;;;40.88;25.58;;;10.20;1.00;;;;;;5053316;28;20396;-90
2022/03/18 07:17:55;;;;;;;34.58;24.33;;;10.60;1.00;;;;;;5051768;28;20032;-91
2022/03/18 07:20:22;;;;;;;36.65;24.88;;;10.20;1.00;;;;;;5053894;28;20021;-91
2022/03/18 07:23:05;;;;;;;37.83;25.27;;;10.00;1.00;;;;;;5054276;28;20451;-91
2022/03/18 07:25:32;;;;;;;36.60;25.15;;;10.10;1.00;;;;;;5050242;28;20025;-90
2022/03/18 07:27:59;;;;;;;36.63;25.67;;;10.10;1.00;;;;;;5049564;28;20122;-91
2022/03/18 07:30:24;;;;;;;40.35;25.90;;;10.20;1.00;;;;;;5052425;28;20021;-90
2022/03/18 07:32:51;;;;;;;33.53;24.13;;;10.20;1.00;;;;;;5050979;28;20056;-90
2022/03/18 07:35:16;;;;;;;34.30;23.65;;;10.40;1.00;;;;;;5052208;28;20078;-90
2022/03/18 07:37:42;;;;;;;36.50;24.33;;;10.20;1.00;;;;;;5064303;28;20127;-90
2022/03/18 07:40:11;;;;;;;35.33;23.73;;;10.30;1.00;;;;;;5052775;28;20021;-91
2022/03/18 07:42:53;;;;;;;35.53;24.33;;;10.40;1.00;;;;;;5049063;28;20107;-90
2022/03/18 07:45:21;;;;;;;34.13;23.90;;;10.20;1.00;;;;;;5049167;28;20104;-90
2022/03/18 07:47:49;;;;;;;33.42;23.80;;;10.20;1.00;;;;;;5052267;28;20150;-91
2022/03/18 07:50:20;;;;;;;32.17;23.23;;;10.30;1.00;;;;;;5053405;28;20029;-90
2022/03/18 07:52:51;;;;;;;34.58;23.88;;;10.30;1.00;;;;;;5053789;28;20037;-91
2022/03/18 07:55:18;;;;;;;35.75;24.33;;;10.40;1.00;;;;;;5053477;28;20021;-90
2022/03/18 07:57:44;;;;;;;35.72;23.90;;;10.30;1.00;;;;;;5051664;28;20059;-89
2022/03/18 08:00:11;;;;;;;31.42;23.15;;;10.40;1.00;;;;;;5063170;28;20021;-90
2022/03/18 08:02:38;;;;;;;32.65;23.73;;;10.30;1.00;;;;;;5051947;28;20124;-90
2022/03/18 08:05:04;;;;;;;34.50;22.58;;;10.30;1.00;;;;;;5052474;28;20025;-90
2022/03/18 08:07:29;;;;;;;34.92;23.20;;;10.30;1.00;;;;;;5050152;28;20090;-90
2022/03/18 08:09:55;;;;;;;33.15;23.08;;;10.20;1.00;;;;;;5051830;28;20035;-90
2022/03/18 08:12:21;;;;;;;31.73;22.25;;;10.40;1.00;;;;;;5051057;28;20120;-91
2022/03/18 08:14:47;;;;;;;32.70;23.23;;;10.30;1.00;;;;;;5052056;28;20044;-90
2022/03/18 08:17:12;;;;;;;32.05;22.85;;;10.30;1.00;;;;;;5053205;28;20531;-90
2022/03/18 08:19:38;;;;;;;38.17;23.50;;;10.20;1.00;;;;;;5050774;28;20039;-90
2022/03/18 08:22:04;;;;;;;31.67;22.83;;;10.20;1.00;;;;;;5048629;28;20029;-90
2022/03/18 08:24:31;;;;;;;30.38;21.50;;;10.30;1.00;;;;;;5050080;28;20028;-89
2022/03/18 08:26:57;;;;;;;29.48;21.52;;;10.20;1.00;;;;;;5050164;28;20029;-90
2022/03/18 08:29:22;;;;;;;35.10;21.65;;;10.30;1.00;;;;;;5051979;28;20055;-90
2022/03/18 08:31:48;;;;;;;30.50;22.15;;;10.30;1.00;;;;;;5052699;28;20519;-90
2022/03/18 08:34:15;;;;;;;31.00;21.80;;;10.20;1.00;;;;;;5051800;28;20025;-90
2022/03/18 08:36:41;;;;;;;30.80;21.92;;;10.30;1.00;;;;;;5051443;28;20029;-90
2022/03/18 08:39:06;;;;;;;31.42;22.42;;;10.30;1.00;;;;;;5050633;28;20025;-88
2022/03/18 08:41:32;;;;;;;34.10;22.15;;;10.30;1.00;;;;;;5051310;28;20040;-91
2022/03/18 08:43:58;;;;;;;32.70;21.05;;;10.40;1.00;;;;;;5053851;28;20025;-91
2022/03/18 08:46:23;;;;;;;34.13;21.10;;;10.40;1.00;;;;;;5050809;28;20033;-91
2022/03/18 08:48:49;;;;;;;31.90;21.27;;;10.60;1.00;;;;;;5050820;28;20075;-92
2022/03/18 08:51:16;;;;;;;25.73;20.17;;;10.30;1.00;;;;;;5049199;28;20060;-83
2022/03/18 08:53:42;;;;;;;31.45;22.10;;;10.50;1.00;;;;;;5049320;28;20373;-82
2022/03/18 08:56:08;;;;;;;30.65;21.90;;;10.50;1.00;;;;;;5051654;28;20032;-82
2022/03/18 08:58:33;;;;;;;29.05;21.17;;;10.40;1.00;;;;;;5051252;28;20039;-82
2022/03/18 09:00:59;;;;;;;32.55;23.45;;;10.30;1.00;;;;;;5048226;28;20053;-84
2022/03/18 09:03:25;;;;;;;29.33;20.73;;;10.40;1.00;;;;;;5047881;28;20408;-83
2022/03/18 09:05:51;;;;;;;30.95;21.13;;;10.30;1.00;;;;;;5050016;28;20067;-82
2022/03/18 09:08:16;;;;;;;31.15;20.85;;;10.50;1.00;;;;;;5049978;28;20064;-82
2022/03/18 09:10:42;;;;;;;33.47;20.98;;;10.40;1.00;;;;;;5050500;28;20032;-82
2022/03/18 09:13:08;;;;;;;27.60;20.33;;;10.20;1.00;;;;;;5049206;28;20063;-82
2022/03/18 09:15:33;;;;;;;28.23;21.48;;;10.10;1.00;;;;;;5049835;28;20025;-83
2022/03/18 09:17:59;;;;;;;30.02;20.58;;;10.20;1.00;;;;;;5049757;28;20032;-82
2022/03/18 09:20:25;;;;;;;29.88;20.73;;;10.40;1.00;;;;;;5049526;28;20032;-83
2022/03/18 09:22:51;;;;;;;27.83;20.02;;;10.40;1.00;;;;;;5051451;28;20500;-83
2022/03/18 09:25:17;;;;;;;27.55;20.10;;;10.40;1.00;;;;;;5048713;28;20036;-83
2022/03/18 09:27:42;;;;;;;31.90;21.30;;;10.30;1.00;;;;;;5050063;28;20028;-83
2022/03/18 09:30:10;;;;;;;27.40;20.42;;;10.20;1.00;;;;;;5050025;28;20408;-82
2022/03/18 09:32:35;;;;;;;27.55;21.17;;;10.10;1.00;;;;;;5048920;28;20048;-83
2022/03/18 09:35:01;;;;;;;29.35;20.67;;;10.10;1.00;;;;;;5051142;28;20029;-83
2022/03/18 09:37:27;;;;;;;27.52;20.02;;;10.10;1.00;;;;;;5046997;28;20037;-84
2022/03/18 09:39:53;;;;;;;25.90;20.17;;;10.20;1.00;;;;;;5048447;28;20389;-83
2022/03/18 09:42:18;;;;;;;25.73;19.80;;;10.40;1.00;;;;;;5047629;28;20021;-83
2022/03/18 09:44:44;;;;;;;24.70;18.90;;;10.20;1.00;;;;;;5048990;28;20025;-83
2022/03/18 09:47:10;;;;;;;28.05;19.98;;;10.00;1.00;;;;;;5051789;28;20032;-84
2022/03/18 09:49:36;;;;;;;27.35;19.88;;;10.10;1.00;;;;;;5047425;28;20032;-83
2022/03/18 09:52:03;;;;;;;28.38;19.45;;;10.10;1.00;;;;;;5048640;28;20029;-84
2022/03/18 09:54:31;;;;;;;26.38;18.67;;;10.10;1.00;;;;;;5048983;28;20136;-83
2022/03/18 09:56:57;;;;;;;27.73;20.33;;;10.20;1.00;;;;;;5049408;28;20018;-83
2022/03/18 09:59:24;;;;;;;27.33;18.58;;;10.30;1.00;;;;;;5049662;28;20435;-84
2022/03/18 10:02:10;;;;;;;25.58;19.48;;;10.40;1.00;;;;;;5049107;28;20109;-82
2022/03/18 10:04:51;;;;;;;30.13;20.05;;;10.40;1.00;;;;;;5047792;28;20053;-82
2022/03/18 10:07:17;;;;;;;26.15;19.48;;;10.40;1.00;;;;;;5048739;28;20033;-83
2022/03/18 10:09:43;;;;;;;25.38;18.38;;;10.60;1.00;;;;;;5049054;28;20396;-82
2022/03/18 10:12:28;;;;;;;27.40;19.27;;;10.40;1.00;;;;;;5049134;28;20792;-84
2022/03/18 10:15:15;;;;;;;29.48;19.88;;;10.50;1.00;;;;;;5037152;28;20115;-83
2022/03/18 10:17:49;;;;;;;25.88;19.85;;;10.50;1.00;;;;;;5036076;28;20044;-83
2022/03/18 10:20:25;;;;;;;28.90;20.30;;;10.40;1.00;;;;;;5051006;28;20029;-83
2022/03/18 10:22:52;;;;;;;28.02;19.83;;;10.50;1.00;;;;;;5054756;28;20041;-83
2022/03/18 10:25:37;;;;;;;25.70;19.13;;;10.60;1.00;;;;;;5050938;28;20032;-83
2022/03/18 10:28:03;;;;;;;26.50;20.17;;;10.50;1.00;;;;;;5052425;28;20033;-82
2022/03/18 10:30:29;;;;;;;26.33;19.02;;;10.50;1.00;;;;;;5052260;28;20480;-83
2022/03/18 10:32:55;;;;;;;27.52;19.73;;;10.50;1.00;;;;;;5052025;28;20060;-84
2022/03/18 10:38:28;;;;;;;28.73;20.10;;;10.50;1.00;;;;;;5050852;28;20460;-85
2022/03/18 10:40:55;;;;;;;26.35;19.90;;;10.50;1.00;;;;;;5052779;28;20079;-84
2022/03/18 10:43:21;;;;;;;27.98;19.02;;;10.50;1.00;;;;;;5051876;28;20037;-84
2022/03/18 10:46:06;;;;;;;28.80;20.63;;;10.50;1.00;;;;;;5051841;28;20029;-84
2022/03/18 10:48:32;;;;;;;29.58;20.63;;;10.40;1.00;;;;;;5052360;28;20029;-84
2022/03/18 10:51:06;;;;;;;29.50;19.88;;;10.50;1.00;;;;;;5051792;28;20116;-84
2022/03/18 10:53:33;;;;;;;33.35;20.15;;;10.50;1.00;;;;;;5052087;28;20037;-84
2022/03/18 10:56:03;;;;;;;28.10;19.77;;;10.40;1.00;;;;;;5054508;28;20052;-83
2022/03/18 10:58:32;;;;;;;26.88;18.73;;;10.50;1.00;;;;;;5050548;28;20485;-83
2022/03/18 11:01:00;;;;;;;27.63;19.10;;;10.40;1.00;;;;;;5050819;28;20033;-83
2022/03/18 11:03:26;;;;;;;29.02;19.85;;;10.40;1.00;;;;;;5051892;28;20043;-83
2022/03/18 11:05:52;;;;;;;29.30;20.42;;;10.40;1.00;;;;;;5051553;28;20481;-83
2022/03/18 11:08:22;;;;;;;27.55;19.50;;;10.40;1.00;;;;;;5052798;28;20034;-83
2022/03/18 11:14:08;;;;;;;28.75;20.30;;;10.50;1.00;;;;;;5052040;28;20083;-82
2022/03/18 11:16:36;;;;;;;32.45;22.25;;;10.60;1.00;;;;;;5051409;28;20521;-85
2022/03/18 11:19:08;;;;;;;31.20;20.85;;;10.70;1.00;;;;;;5051519;28;20566;-86
2022/03/18 11:21:40;;;;;;;26.33;20.33;;;10.70;1.00;;;;;;5051371;28;20083;-86
2022/03/18 11:24:22;;;;;;;25.17;19.17;;;10.70;1.00;;;;;;5051914;28;20053;-85
2022/03/18 11:26:50;;;;;;;27.90;19.73;;;10.60;1.00;;;;;;5037568;28;20033;-84
2022/03/18 11:29:24;;;;;;;30.45;20.77;;;10.70;1.00;;;;;;5052540;28;20036;-84
2022/03/18 11:32:12;;;;;;;28.75;19.25;;;10.70;1.00;;;;;;5053136;28;20382;-84
2022/03/18 11:35:03;;;;;;;25.30;18.95;;;10.70;1.00;;;;;;5051762;28;20374;-83
2022/03/18 11:37:30;;;;;;;28.27;19.20;;;10.90;1.00;;;;;;5046903;28;20207;-84
2022/03/18 11:40:23;;;;;;;25.27;19.55;;;10.70;1.00;;;;;;5048522;28;20082;-85
2022/03/18 11:42:49;;;;;;;27.75;19.23;;;10.70;1.00;;;;;;5051536;28;20501;-84
2022/03/18 11:45:44;;;;;;;27.27;19.15;;;10.60;1.00;;;;;;5049420;28;20111;-85
2022/03/18 11:48:35;;;;;;;26.42;19.63;;;10.60;1.00;;;;;;5036325;28;20090;-83
2022/03/18 11:51:24;;;;;;;30.65;20.75;;;10.60;1.00;;;;;;5038692;28;20039;-85
2022/03/18 11:53:54;;;;;;;30.92;19.60;;;10.80;1.00;;;;;;5036734;28;20033;-85
2022/03/18 11:56:44;;;;;;;31.08;19.80;;;10.80;1.00;;;;;;5052452;28;20108;-87
2022/03/18 11:59:38;;;;;;;27.15;20.52;;;10.80;1.00;;;;;;5049609;28;20033;-86
2022/03/18 12:02:11;;;;;;;27.55;19.88;;;10.80;1.00;;;;;;5052860;28;20090;-83
2022/03/18 12:04:39;;;;;;;25.95;20.00;;;10.80;1.00;;;;;;5051635;28;20116;-85
2022/03/18 12:07:11;;;;;;;29.52;20.02;;;10.80;1.00;;;;;;5050788;28;20443;-84
2022/03/18 12:09:48;;;;;;;31.05;21.15;;;10.60;1.00;;;;;;5049160;28;20517;-85
2022/03/18 12:12:15;;;;;;;34.35;21.30;;;10.70;1.00;;;;;;5050629;28;20077;-89
2022/03/18 12:14:41;;;;;;;31.30;20.95;;;10.60;1.00;;;;;;5048284;28;20436;-84
2022/03/18 12:17:07;;;;;;;30.50;22.52;;;10.50;1.00;;;;;;5048129;28;20025;-84
2022/03/18 12:19:35;;;;;;;32.33;23.38;;;10.50;1.00;;;;;;5048986;28;20032;-84
2022/03/18 12:22:01;;;;;;;31.27;21.95;;;10.50;1.00;;;;;;5050416;28;20017;-83
2022/03/18 12:24:32;;;;;;;26.17;21.33;;;10.60;1.00;;;;;;5050469;28;20048;-84
2022/03/18 12:27:00;;;;;;;28.92;21.63;;;10.60;1.00;;;;;;5050785;28;20033;-84
2022/03/18 12:29:27;;;;;;;29.92;21.42;;;10.50;1.00;;;;;;5050515;28;20032;-84
2022/03/18 12:32:08;;;;;;;30.25;21.35;;;10.50;1.00;;;;;;5049976;28;20041;-85
2022/03/18 12:34:35;;;;;;;27.38;20.98;;;10.60;1.00;;;;;;5050762;28;20032;-84
2022/03/18 12:37:04;;;;;;;31.00;21.15;;;10.60;1.00;;;;;;5049590;28;20040;-84
2022/03/18 12:39:29;;;;;;;29.40;21.92;;;10.60;1.00;;;;;;5050510;28;20451;-84
2022/03/18 12:42:11;;;;;;;34.38;23.13;;;10.50;1.00;;;;;;5050416;28;20029;-84
2022/03/18 12:44:37;;;;;;;36.58;23.02;;;10.60;1.00;;;;;;5050064;28;20033;-84
2022/03/18 12:47:05;;;;;;;34.30;23.00;;;10.70;1.00;;;;;;5052134;28;20028;-84
2022/03/18 12:49:35;;;;;;;35.10;23.83;;;10.70;1.00;;;;;;5050053;28;20027;-84
2022/03/18 12:52:02;;;;;;;34.25;23.65;;;10.60;1.00;;;;;;5050160;28;20029;-84
2022/03/18 12:54:29;;;;;;;34.95;24.52;;;10.50;1.00;;;;;;5048952;28;20044;-84
2022/03/18 12:56:55;;;;;;;30.85;23.98;;;10.60;1.00;;;;;;5047314;28;20021;-86